Time;durP1;ratioP1;P1;durP2;ratioP2;P2;SDS_P1;SDS_P2;PMS_P1;PMS_P2;Temp;Humidity;BMP_temperature;BMP_pressure;BME280_temperature;BME280_humidity;BME280_pressure;Samples;Min_cycle;Max_cycle;Signal;HPM_P1;HPM_P2
2023/04/22 00:02:16;;;;;;;4.77;4.37;;;15.90;94.50;;;;;;4911991;29;20208;-70
2023/04/22 00:04:44;;;;;;;5.10;4.60;;;15.90;94.60;;;;;;4912113;29;20653;-70
2023/04/22 00:07:12;;;;;;;4.87;4.50;;;15.90;94.50;;;;;;4930989;29;20208;-70
2023/04/22 00:09:41;;;;;;;4.53;4.13;;;15.80;94.40;;;;;;4930930;29;20209;-70
2023/04/22 00:12:10;;;;;;;5.43;4.70;;;15.90;94.50;;;;;;4931015;29;20307;-70
2023/04/22 00:14:37;;;;;;;5.30;4.90;;;15.80;94.60;;;;;;4930958;29;20212;-69
2023/04/22 00:17:05;;;;;;;5.43;4.60;;;15.80;94.50;;;;;;4930211;29;20343;-70
2023/04/22 00:19:32;;;;;;;5.77;4.20;;;15.80;94.40;;;;;;4931066;29;20251;-70
2023/04/22 00:21:59;;;;;;;5.30;4.80;;;15.80;94.40;;;;;;4930711;29;20322;-70
2023/04/22 00:24:26;;;;;;;5.07;4.67;;;15.80;94.40;;;;;;4930605;29;20301;-69
2023/04/22 00:26:55;;;;;;;5.27;4.80;;;15.80;94.50;;;;;;4930697;29;20212;-70
2023/04/22 00:29:22;;;;;;;5.10;4.50;;;15.70;94.90;;;;;;4930675;29;20302;-70
2023/04/22 00:31:49;;;;;;;5.33;4.50;;;15.70;94.40;;;;;;4930006;29;20675;-69
2023/04/22 00:34:17;;;;;;;4.87;4.43;;;15.70;94.40;;;;;;4930002;29;20750;-69
2023/04/22 00:36:43;;;;;;;5.57;4.33;;;15.70;94.50;;;;;;4930316;29;20215;-70
2023/04/22 00:39:11;;;;;;;5.90;4.80;;;15.70;94.40;;;;;;4930293;29;20322;-70
2023/04/22 00:41:39;;;;;;;4.73;4.33;;;15.70;94.30;;;;;;4930235;29;20216;-70
2023/04/22 00:44:09;;;;;;;6.20;4.37;;;15.60;94.30;;;;;;4930263;29;20222;-70
2023/04/22 00:46:38;;;;;;;6.57;4.80;;;15.60;94.30;;;;;;4930487;29;20219;-70
2023/04/22 00:49:05;;;;;;;5.97;4.53;;;15.60;94.70;;;;;;4930171;29;20216;-70
2023/04/22 00:51:32;;;;;;;5.03;4.70;;;15.60;94.30;;;;;;4930461;29;20299;-70
2023/04/22 00:54:00;;;;;;;5.43;4.57;;;15.60;94.30;;;;;;4929863;29;20216;-70
2023/04/22 00:56:28;;;;;;;4.87;4.47;;;15.60;94.30;;;;;;4930149;29;20738;-70
2023/04/22 00:58:56;;;;;;;5.30;4.80;;;15.50;94.20;;;;;;4929990;29;20362;-70
2023/04/22 01:01:25;;;;;;;5.37;4.97;;;15.50;94.20;;;;;;4927079;29;20240;-70
2023/04/22 01:03:52;;;;;;;5.50;4.53;;;15.50;94.30;;;;;;4910933;29;20220;-70
2023/04/22 01:06:19;;;;;;;5.07;4.67;;;15.50;94.50;;;;;;4923156;29;20303;-70
2023/04/22 01:08:47;;;;;;;6.73;4.63;;;15.50;94.50;;;;;;4929696;29;20219;-71
2023/04/22 01:11:14;;;;;;;4.70;4.33;;;15.40;94.60;;;;;;4930186;29;20557;-71
2023/04/22 01:13:41;;;;;;;6.47;4.90;;;15.40;94.40;;;;;;4931920;29;20235;-71
2023/04/22 01:16:09;;;;;;;5.20;4.60;;;15.40;94.50;;;;;;4948501;28;20933;-71
2023/04/22 01:18:38;;;;;;;5.27;4.87;;;15.40;94.60;;;;;;4948657;28;20765;-70
2023/04/22 01:21:06;;;;;;;6.60;5.10;;;15.40;94.60;;;;;;4940915;28;20299;-70
2023/04/22 01:23:35;;;;;;;5.43;4.97;;;15.40;94.50;;;;;;4929410;29;20208;-70
2023/04/22 01:26:03;;;;;;;6.53;4.63;;;15.30;94.60;;;;;;4929543;29;20208;-70
2023/04/22 01:28:31;;;;;;;5.30;4.80;;;15.30;94.80;;;;;;4929518;29;20248;-70
2023/04/22 01:30:58;;;;;;;4.90;4.40;;;15.30;94.80;;;;;;4929153;29;20248;-69
2023/04/22 01:33:25;;;;;;;5.70;4.87;;;15.30;94.80;;;;;;4929630;29;20263;-69
2023/04/22 01:35:52;;;;;;;5.37;4.87;;;15.20;95.00;;;;;;4929372;29;20212;-69
2023/04/22 01:38:19;;;;;;;5.90;5.20;;;15.20;95.20;;;;;;4929302;29;20335;-70
2023/04/22 01:40:47;;;;;;;5.90;5.30;;;15.20;95.10;;;;;;4929195;29;20239;-70
2023/04/22 01:43:14;;;;;;;6.40;4.77;;;15.10;95.00;;;;;;4929426;29;20292;-70
2023/04/22 01:45:41;;;;;;;5.67;4.90;;;15.10;95.10;;;;;;4929303;29;20566;-71
2023/04/22 01:48:08;;;;;;;5.80;4.90;;;15.10;95.20;;;;;;4928902;29;20684;-70
2023/04/22 01:50:35;;;;;;;5.77;5.17;;;15.10;95.20;;;;;;4928719;29;20303;-70
2023/04/22 01:53:02;;;;;;;5.33;4.87;;;15.10;95.10;;;;;;4928751;29;20307;-70
2023/04/22 01:55:30;;;;;;;5.17;4.67;;;15.00;95.10;;;;;;4928741;29;20306;-70
2023/04/22 01:57:58;;;;;;;5.87;4.90;;;15.00;95.40;;;;;;4923165;29;20223;-70
2023/04/22 02:00:25;;;;;;;5.00;4.50;;;15.00;95.40;;;;;;4925636;29;20382;-70
2023/04/22 02:02:52;;;;;;;5.27;4.77;;;15.00;95.60;;;;;;4928616;29;20319;-70
2023/04/22 02:05:19;;;;;;;5.20;4.70;;;14.90;95.60;;;;;;4928881;29;20212;-71
2023/04/22 02:07:46;;;;;;;5.30;4.80;;;14.90;95.40;;;;;;4928383;29;20958;-70
2023/04/22 02:10:13;;;;;;;5.53;4.93;;;14.90;95.50;;;;;;4928736;29;20299;-70
2023/04/22 02:12:40;;;;;;;10.07;5.17;;;14.90;95.30;;;;;;4928554;29;20215;-70
2023/04/22 02:15:09;;;;;;;5.70;5.13;;;14.90;95.30;;;;;;4928711;29;20236;-70
2023/04/22 02:17:37;;;;;;;6.17;5.57;;;14.80;95.30;;;;;;4928411;29;20323;-70
2023/04/22 02:20:05;;;;;;;5.67;5.17;;;14.80;95.40;;;;;;4927978;29;20741;-70
2023/04/22 02:22:32;;;;;;;7.33;5.00;;;14.80;95.40;;;;;;4928707;29;20215;-70
2023/04/22 02:25:00;;;;;;;5.80;5.27;;;14.80;95.40;;;;;;4928445;29;20685;-69
2023/04/22 02:27:27;;;;;;;7.17;4.80;;;14.80;95.40;;;;;;4928611;29;20239;-70
2023/04/22 02:29:54;;;;;;;5.90;5.40;;;14.80;95.60;;;;;;4928105;29;20307;-70
2023/04/22 02:32:22;;;;;;;7.07;5.23;;;14.70;95.50;;;;;;4928373;29;20644;-70
2023/04/22 02:34:49;;;;;;;5.60;5.10;;;14.70;95.50;;;;;;4927981;29;20243;-70
2023/04/22 02:37:17;;;;;;;6.40;5.20;;;14.70;95.50;;;;;;4928505;29;20220;-70
2023/04/22 02:39:44;;;;;;;5.17;4.67;;;14.70;95.60;;;;;;4927733;29;20714;-70
2023/04/22 02:42:11;;;;;;;6.03;4.80;;;14.70;95.70;;;;;;4928329;29;20303;-70
2023/04/22 02:44:38;;;;;;;9.00;4.83;;;14.70;95.80;;;;;;4928314;29;20248;-70
2023/04/22 02:47:07;;;;;;;5.50;5.00;;;14.60;95.60;;;;;;4928519;29;20263;-70
2023/04/22 02:49:35;;;;;;;6.00;5.47;;;14.60;95.60;;;;;;4928915;29;20298;-70
2023/04/22 02:52:02;;;;;;;5.60;5.10;;;14.70;95.60;;;;;;4928477;29;20307;-70
2023/04/22 02:54:29;;;;;;;7.43;5.43;;;14.60;95.80;;;;;;4927818;29;20295;-70
2023/04/22 02:56:56;;;;;;;5.50;5.00;;;14.60;95.80;;;;;;4928294;29;20845;-70
2023/04/22 02:59:23;;;;;;;7.03;5.23;;;14.50;95.80;;;;;;4928402;29;20251;-70
2023/04/22 03:01:50;;;;;;;6.07;5.07;;;14.50;95.90;;;;;;4928034;29;20306;-70
2023/04/22 03:04:20;;;;;;;5.60;5.10;;;14.50;95.80;;;;;;4928250;29;20326;-70
2023/04/22 03:06:49;;;;;;;5.97;5.40;;;14.50;96.00;;;;;;4928341;29;20226;-70
2023/04/22 03:09:17;;;;;;;5.90;5.23;;;14.50;95.90;;;;;;4927845;29;20630;-70
2023/04/22 03:11:43;;;;;;;5.30;4.90;;;14.40;96.00;;;;;;4927735;29;20212;-70
2023/04/22 03:14:10;;;;;;;7.03;4.73;;;14.40;96.20;;;;;;4927843;29;20306;-70
2023/04/22 03:16:37;;;;;;;5.33;4.80;;;14.40;96.30;;;;;;4927278;29;20338;-69
2023/04/22 03:19:04;;;;;;;5.23;4.83;;;14.30;96.10;;;;;;4927848;29;20230;-69
2023/04/22 03:21:32;;;;;;;5.67;5.17;;;14.30;96.30;;;;;;4927563;29;20678;-69
2023/04/22 03:24:00;;;;;;;5.40;4.97;;;14.20;96.20;;;;;;4927661;29;20212;-70
2023/04/22 03:26:27;;;;;;;7.23;4.70;;;14.20;96.10;;;;;;4928148;29;20524;-69
2023/04/22 03:28:54;;;;;;;7.13;5.33;;;14.10;96.40;;;;;;4928106;29;20330;-70
2023/04/22 03:31:21;;;;;;;5.00;4.60;;;14.10;96.30;;;;;;4929012;29;20539;-69
2023/04/22 03:33:48;;;;;;;7.43;4.70;;;14.00;96.80;;;;;;4931938;29;20216;-71
2023/04/22 03:36:15;;;;;;;6.80;5.10;;;13.90;96.70;;;;;;4931724;29;21017;-70
2023/04/22 03:38:42;;;;;;;5.70;5.10;;;13.80;96.80;;;;;;4931119;29;20212;-70
2023/04/22 03:41:10;;;;;;;8.20;4.80;;;13.80;96.90;;;;;;4931755;29;20833;-70
2023/04/22 03:43:37;;;;;;;6.40;5.27;;;13.80;96.70;;;;;;4931883;29;20218;-70
2023/04/22 03:46:04;;;;;;;6.80;5.20;;;13.90;96.70;;;;;;4931408;29;20322;-70
2023/04/22 03:48:34;;;;;;;5.47;4.97;;;13.90;96.70;;;;;;4931359;29;20247;-70
2023/04/22 03:51:01;;;;;;;5.50;5.10;;;13.80;96.80;;;;;;4921232;29;20922;-70
2023/04/22 03:53:28;;;;;;;8.60;5.30;;;13.90;96.60;;;;;;4911906;29;20213;-70
2023/04/22 03:55:55;;;;;;;5.73;5.33;;;13.80;96.60;;;;;;4930800;29;20334;-70
2023/04/22 03:58:23;;;;;;;5.00;4.50;;;13.80;96.80;;;;;;4931159;29;20208;-69
2023/04/22 04:00:50;;;;;;;5.70;5.20;;;13.80;96.80;;;;;;4911559;29;20339;-70
2023/04/22 04:03:17;;;;;;;6.60;5.60;;;13.70;97.20;;;;;;4911734;29;20695;-70
2023/04/22 04:05:44;;;;;;;6.83;5.43;;;13.60;96.90;;;;;;4911723;29;20688;-69
2023/04/22 04:08:11;;;;;;;5.77;5.20;;;13.60;97.10;;;;;;4911760;29;20764;-70
2023/04/22 04:10:38;;;;;;;5.67;4.97;;;13.50;97.20;;;;;;4923755;29;20216;-70
2023/04/22 04:13:05;;;;;;;5.47;4.57;;;13.60;97.50;;;;;;4931136;29;20638;-70
2023/04/22 04:15:35;;;;;;;6.13;5.53;;;13.60;97.30;;;;;;4930856;29;20228;-70
2023/04/22 04:18:02;;;;;;;7.87;5.37;;;13.60;97.40;;;;;;4930431;29;20258;-71
2023/04/22 04:20:30;;;;;;;5.73;4.93;;;13.60;97.60;;;;;;4930734;29;20597;-70
2023/04/22 04:22:56;;;;;;;5.90;5.40;;;13.60;97.60;;;;;;4930815;29;20216;-70
2023/04/22 04:25:24;;;;;;;6.03;5.23;;;13.50;97.40;;;;;;4930723;29;20308;-70
2023/04/22 04:27:50;;;;;;;6.00;5.50;;;13.40;97.60;;;;;;4930141;29;20275;-70
2023/04/22 04:30:20;;;;;;;7.03;5.67;;;13.30;97.60;;;;;;4930446;29;20239;-70
2023/04/22 04:32:48;;;;;;;5.93;5.20;;;13.30;97.90;;;;;;4930392;29;20216;-70
2023/04/22 04:35:17;;;;;;;5.43;4.93;;;13.20;97.80;;;;;;4930318;29;20774;-69
2023/04/22 04:37:45;;;;;;;8.07;5.33;;;13.20;97.90;;;;;;4929976;29;20216;-70
2023/04/22 04:40:12;;;;;;;5.80;5.30;;;13.20;97.90;;;;;;4930169;29;20236;-70
2023/04/22 04:42:39;;;;;;;5.97;4.97;;;13.20;97.50;;;;;;4929805;29;20385;-70
2023/04/22 04:45:08;;;;;;;6.57;5.47;;;13.30;97.60;;;;;;4930423;29;20681;-70
2023/04/22 04:47:35;;;;;;;5.87;5.27;;;13.40;97.40;;;;;;4918450;29;20216;-70
2023/04/22 04:50:03;;;;;;;6.07;5.23;;;13.40;97.50;;;;;;4912911;29;20768;-70
2023/04/22 04:52:31;;;;;;;6.23;5.50;;;13.40;97.40;;;;;;4930712;29;20212;-70
2023/04/22 04:54:58;;;;;;;5.50;5.10;;;13.50;97.40;;;;;;4930315;29;20215;-70
2023/04/22 04:57:25;;;;;;;5.73;5.13;;;13.40;98.00;;;;;;4930577;29;20303;-70
2023/04/22 04:59:52;;;;;;;5.67;5.07;;;13.40;97.70;;;;;;4929945;29;20326;-70
2023/04/22 05:02:19;;;;;;;6.30;5.10;;;13.50;97.50;;;;;;4930546;29;20208;-70
2023/04/22 05:04:45;;;;;;;9.17;5.33;;;13.50;97.50;;;;;;4930346;29;20632;-69
2023/04/22 05:07:14;;;;;;;6.63;5.73;;;13.40;97.60;;;;;;4930508;29;20322;-70
2023/04/22 05:09:41;;;;;;;5.60;5.10;;;13.50;97.80;;;;;;4929788;29;20769;-70
2023/04/22 05:12:08;;;;;;;6.00;5.53;;;13.50;97.60;;;;;;4930035;29;20242;-70
2023/04/22 05:14:35;;;;;;;8.37;5.53;;;13.50;97.80;;;;;;4929804;29;20323;-70
2023/04/22 05:17:02;;;;;;;5.53;5.03;;;13.60;97.50;;;;;;4929239;29;20240;-69
2023/04/22 05:19:29;;;;;;;5.83;5.30;;;13.60;97.60;;;;;;4929051;29;20319;-69
2023/04/22 05:21:56;;;;;;;6.37;5.10;;;13.60;97.80;;;;;;4929127;29;20212;-69
2023/04/22 05:24:25;;;;;;;7.43;5.83;;;13.60;97.70;;;;;;4928516;29;20287;-69
2023/04/22 05:26:52;;;;;;;8.23;5.60;;;13.60;97.90;;;;;;4928823;29;20210;-70
2023/04/22 05:29:19;;;;;;;5.70;5.20;;;13.60;97.60;;;;;;4928808;29;20231;-70
2023/04/22 05:31:46;;;;;;;6.73;5.30;;;13.60;97.60;;;;;;4928983;29;20288;-70
2023/04/22 05:34:12;;;;;;;6.83;5.83;;;13.60;97.60;;;;;;4929184;29;20208;-71
2023/04/22 05:36:39;;;;;;;6.57;5.50;;;13.60;97.50;;;;;;4929525;29;20291;-72
2023/04/22 05:39:06;;;;;;;7.13;5.50;;;13.50;97.60;;;;;;4929102;29;20584;-71
2023/04/22 05:41:35;;;;;;;6.63;5.63;;;13.50;97.70;;;;;;4929340;29;20232;-72
2023/04/22 05:44:04;;;;;;;8.43;5.40;;;13.50;97.80;;;;;;4925466;29;20300;-71
2023/04/22 05:46:31;;;;;;;8.13;5.80;;;13.50;97.80;;;;;;4927463;29;20721;-71
2023/04/22 05:48:58;;;;;;;8.13;5.47;;;13.60;97.90;;;;;;4927648;29;20219;-72
2023/04/22 05:51:25;;;;;;;8.77;5.80;;;13.60;97.90;;;;;;4927385;29;20268;-71
2023/04/22 05:53:52;;;;;;;6.80;6.20;;;13.70;97.90;;;;;;4926256;29;20883;-72
2023/04/22 05:56:19;;;;;;;6.17;5.63;;;13.70;97.70;;;;;;4926804;29;20714;-72
2023/04/22 05:58:48;;;;;;;6.33;5.70;;;13.70;97.70;;;;;;4927397;29;20212;-72
2023/04/22 06:01:15;;;;;;;6.10;5.60;;;13.80;97.70;;;;;;4927411;29;20355;-72
2023/04/22 06:03:41;;;;;;;7.63;5.90;;;13.80;97.90;;;;;;4927366;29;20639;-72
2023/04/22 06:06:08;;;;;;;5.90;5.37;;;13.80;98.00;;;;;;4927750;29;20299;-72
2023/04/22 06:08:35;;;;;;;6.40;5.80;;;13.90;98.00;;;;;;4927504;29;20218;-72
2023/04/22 06:11:02;;;;;;;6.03;5.43;;;13.90;97.90;;;;;;4927240;29;20223;-72
2023/04/22 06:13:29;;;;;;;7.30;5.73;;;13.90;97.90;;;;;;4927026;29;20204;-71
2023/04/22 06:15:57;;;;;;;6.07;5.57;;;14.00;97.80;;;;;;4930907;28;20339;-72
2023/04/22 06:18:24;;;;;;;6.23;5.63;;;14.00;97.80;;;;;;4928393;29;20247;-72
2023/04/22 06:20:51;;;;;;;7.90;5.47;;;14.00;97.70;;;;;;4928360;29;20244;-72
2023/04/22 06:23:18;;;;;;;6.70;5.97;;;14.00;97.90;;;;;;4927963;29;20212;-72
2023/04/22 06:25:46;;;;;;;9.03;5.80;;;14.10;98.10;;;;;;4928465;29;20652;-72
2023/04/22 06:28:13;;;;;;;6.40;5.80;;;14.10;98.20;;;;;;4928983;29;20208;-72
2023/04/22 06:30:39;;;;;;;6.93;5.57;;;14.10;98.20;;;;;;4928774;29;20865;-73
2023/04/22 06:33:08;;;;;;;7.77;5.60;;;14.20;97.90;;;;;;4928265;29;20239;-70
2023/04/22 06:35:35;;;;;;;6.57;5.63;;;14.20;97.90;;;;;;4928624;29;20251;-73
2023/04/22 06:38:02;;;;;;;6.37;5.77;;;14.20;97.90;;;;;;4928170;29;20327;-70
2023/04/22 06:40:29;;;;;;;7.70;5.97;;;14.30;97.80;;;;;;4926708;29;20613;-69
2023/04/22 06:42:56;;;;;;;7.00;5.47;;;14.30;98.30;;;;;;4927867;29;20263;-69
2023/04/22 06:45:22;;;;;;;5.80;5.30;;;14.40;98.50;;;;;;4925898;29;20291;-70
2023/04/22 06:47:51;;;;;;;6.47;5.70;;;14.40;98.50;;;;;;4927903;29;20302;-70
2023/04/22 06:50:20;;;;;;;7.00;5.70;;;14.40;98.00;;;;;;4927778;29;20244;-71
2023/04/22 06:52:47;;;;;;;6.20;5.67;;;14.50;97.80;;;;;;4927350;29;20302;-71
2023/04/22 06:55:14;;;;;;;5.73;5.23;;;14.50;97.80;;;;;;4927457;29;20208;-70
2023/04/22 06:57:41;;;;;;;7.27;6.03;;;14.50;97.70;;;;;;4927365;29;20299;-70
2023/04/22 07:00:09;;;;;;;8.13;6.03;;;14.60;97.70;;;;;;4927167;29;20240;-70
2023/04/22 07:02:35;;;;;;;6.67;5.90;;;14.60;97.80;;;;;;4927472;29;20295;-70
2023/04/22 07:05:03;;;;;;;7.13;5.70;;;14.60;97.50;;;;;;4928010;29;20299;-71
2023/04/22 07:07:31;;;;;;;6.00;5.50;;;14.70;97.80;;;;;;4928377;29;20314;-71
2023/04/22 07:09:58;;;;;;;7.03;5.57;;;14.70;97.60;;;;;;4927753;29;20216;-70
2023/04/22 07:12:25;;;;;;;7.77;5.80;;;14.70;97.60;;;;;;4927971;29;20216;-71
2023/04/22 07:14:52;;;;;;;6.10;5.47;;;14.80;97.90;;;;;;4927589;29;20323;-70
2023/04/22 07:17:21;;;;;;;6.30;5.70;;;14.80;97.80;;;;;;4927620;29;20344;-70
2023/04/22 07:19:48;;;;;;;8.60;5.40;;;14.80;97.60;;;;;;4927884;29;20278;-70
2023/04/22 07:22:15;;;;;;;10.03;5.93;;;14.90;97.80;;;;;;4927924;29;20216;-70
2023/04/22 07:24:43;;;;;;;6.70;6.03;;;14.90;97.80;;;;;;4927717;29;20208;-71
2023/04/22 07:27:10;;;;;;;6.87;5.60;;;15.00;98.10;;;;;;4928336;29;20208;-70
2023/04/22 07:29:37;;;;;;;6.80;5.63;;;15.00;98.10;;;;;;4928161;29;20801;-70
2023/04/22 07:32:05;;;;;;;6.47;5.67;;;15.00;97.90;;;;;;4927908;29;20749;-71
2023/04/22 07:34:32;;;;;;;9.57;5.30;;;15.10;97.70;;;;;;4928211;29;20589;-70
2023/04/22 07:36:59;;;;;;;9.10;6.50;;;15.10;97.90;;;;;;4910549;29;20316;-70
2023/04/22 07:39:26;;;;;;;9.17;7.67;;;15.10;97.90;;;;;;4915371;29;20299;-70
2023/04/22 07:41:55;;;;;;;6.07;5.57;;;15.20;97.60;;;;;;4927732;29;20772;-70
2023/04/22 07:44:22;;;;;;;7.93;6.47;;;15.20;97.70;;;;;;4927745;29;20299;-70
2023/04/22 07:46:49;;;;;;;11.23;5.87;;;15.30;97.70;;;;;;4927460;29;20757;-70
2023/04/22 07:49:16;;;;;;;11.63;6.17;;;15.30;97.60;;;;;;4927721;29;20312;-71
2023/04/22 07:51:43;;;;;;;6.10;5.60;;;15.40;97.60;;;;;;4927342;29;20877;-70
2023/04/22 07:54:10;;;;;;;8.07;5.87;;;15.40;97.80;;;;;;4927290;29;20306;-70
2023/04/22 07:56:37;;;;;;;6.60;5.27;;;15.50;97.70;;;;;;4927790;29;20302;-70
2023/04/22 07:59:06;;;;;;;8.83;5.67;;;15.50;97.90;;;;;;4927744;29;20307;-70
2023/04/22 08:01:33;;;;;;;6.27;5.73;;;15.50;97.80;;;;;;4927383;29;20327;-70
2023/04/22 08:03:59;;;;;;;8.13;5.97;;;15.60;98.00;;;;;;4927693;29;20554;-70
2023/04/22 08:06:26;;;;;;;6.27;5.67;;;15.60;97.70;;;;;;4928314;29;20275;-70
2023/04/22 08:08:53;;;;;;;5.87;5.43;;;15.60;97.90;;;;;;4927543;29;20299;-70
2023/04/22 08:11:20;;;;;;;7.20;5.50;;;15.70;97.80;;;;;;4927741;29;20248;-70
2023/04/22 08:13:47;;;;;;;5.77;5.27;;;15.70;97.80;;;;;;4927480;29;20319;-70
2023/04/22 08:16:16;;;;;;;8.60;5.80;;;15.80;98.50;;;;;;4926222;29;20311;-70
2023/04/22 08:18:42;;;;;;;7.23;5.13;;;15.90;98.50;;;;;;4930104;29;20203;-70
2023/04/22 08:21:09;;;;;;;7.27;5.70;;;15.90;97.90;;;;;;4930742;29;20245;-70
2023/04/22 08:23:36;;;;;;;8.77;6.07;;;16.00;98.10;;;;;;4930499;29;20765;-70
2023/04/22 08:26:03;;;;;;;6.00;5.60;;;16.00;98.20;;;;;;4930502;29;20272;-70
2023/04/22 08:28:30;;;;;;;5.70;5.20;;;16.00;98.10;;;;;;4930916;29;20287;-69
2023/04/22 08:30:57;;;;;;;8.57;6.07;;;16.10;98.20;;;;;;4930643;29;20214;-70
2023/04/22 08:33:26;;;;;;;5.63;5.13;;;16.10;98.40;;;;;;4912332;29;20845;-70
2023/04/22 08:35:53;;;;;;;5.90;5.30;;;16.10;98.40;;;;;;4920191;29;20327;-70
2023/04/22 08:38:20;;;;;;;7.33;5.50;;;16.20;98.40;;;;;;4930707;29;20574;-69
2023/04/22 08:40:47;;;;;;;6.30;5.03;;;16.30;98.20;;;;;;4930644;29;20228;-70
2023/04/22 08:43:15;;;;;;;5.40;4.90;;;16.30;98.30;;;;;;4931077;29;20376;-70
2023/04/22 08:45:44;;;;;;;6.60;5.10;;;16.40;98.50;;;;;;4930860;29;20227;-70
2023/04/22 08:48:12;;;;;;;6.07;5.00;;;16.50;98.80;;;;;;4930584;29;20212;-70
2023/04/22 08:50:41;;;;;;;8.73;5.33;;;16.50;98.50;;;;;;4930610;29;20251;-70
2023/04/22 08:53:08;;;;;;;5.73;4.80;;;16.60;98.60;;;;;;4930268;29;20291;-69
2023/04/22 08:55:35;;;;;;;7.37;5.30;;;16.60;98.20;;;;;;4930295;29;20299;-70
2023/04/22 08:58:04;;;;;;;6.33;5.10;;;16.70;98.30;;;;;;4930042;29;20216;-70
2023/04/22 09:00:33;;;;;;;10.40;5.00;;;16.80;98.70;;;;;;4929610;29;20216;-70
2023/04/22 09:03:02;;;;;;;8.33;5.20;;;16.90;98.50;;;;;;4929786;29;20308;-70
2023/04/22 09:05:32;;;;;;;6.37;5.33;;;16.90;98.50;;;;;;4930525;29;20227;-70
2023/04/22 09:08:02;;;;;;;11.70;5.87;;;17.00;98.90;;;;;;4929952;29;20204;-70
2023/04/22 09:10:30;;;;;;;6.00;5.00;;;17.00;98.70;;;;;;4930108;29;20366;-70
2023/04/22 09:12:58;;;;;;;7.57;4.80;;;17.00;98.40;;;;;;4930179;29;20291;-70
2023/04/22 09:15:26;;;;;;;6.43;4.40;;;17.10;97.90;;;;;;4929689;29;20665;-70
2023/04/22 09:17:53;;;;;;;15.60;5.57;;;17.10;98.40;;;;;;4929654;29;20728;-70
2023/04/22 09:20:26;;;;;;;5.30;4.80;;;17.20;98.60;;;;;;4929993;29;20252;-70
2023/04/22 09:22:53;;;;;;;5.10;4.53;;;17.20;98.60;;;;;;4930313;29;20291;-70
2023/04/22 09:25:23;;;;;;;5.90;4.57;;;17.30;97.70;;;;;;4929884;29;20248;-70
2023/04/22 09:27:51;;;;;;;7.20;4.43;;;17.40;97.90;;;;;;4929248;29;20271;-70
2023/04/22 09:30:22;;;;;;;6.17;4.70;;;17.40;97.60;;;;;;4929137;29;20585;-70
2023/04/22 09:32:53;;;;;;;7.57;4.57;;;17.40;97.60;;;;;;4929730;29;20291;-70
2023/04/22 09:35:27;;;;;;;5.30;4.80;;;17.50;97.80;;;;;;4929764;29;20216;-70
2023/04/22 09:37:54;;;;;;;5.57;4.50;;;17.60;97.80;;;;;;4929196;29;20235;-70
2023/04/22 09:40:23;;;;;;;8.10;5.10;;;17.60;97.70;;;;;;4929296;29;20780;-70
2023/04/22 09:42:51;;;;;;;4.87;4.47;;;17.60;97.20;;;;;;4928914;29;20811;-70
2023/04/22 09:45:29;;;;;;;5.20;4.70;;;17.70;96.80;;;;;;4929304;29;20243;-70
2023/04/22 09:47:57;;;;;;;5.67;4.60;;;17.70;97.00;;;;;;4928844;29;20303;-70
2023/04/22 09:50:26;;;;;;;5.37;4.60;;;17.80;97.00;;;;;;4929211;29;20244;-70
2023/04/22 09:52:59;;;;;;;6.40;4.43;;;17.90;96.80;;;;;;4929298;29;20242;-70
2023/04/22 09:55:29;;;;;;;7.57;4.97;;;18.00;98.00;;;;;;4929437;29;20212;-70
2023/04/22 09:57:58;;;;;;;6.00;4.37;;;18.20;97.60;;;;;;4929387;29;20340;-70
2023/04/22 10:00:28;;;;;;;5.60;4.07;;;18.20;96.70;;;;;;4929115;29;20220;-70
2023/04/22 10:02:55;;;;;;;7.03;4.30;;;18.30;95.80;;;;;;4929363;29;20278;-70
2023/04/22 10:05:22;;;;;;;5.70;4.37;;;18.30;95.60;;;;;;4929301;29;20251;-70
2023/04/22 10:07:49;;;;;;;5.40;4.50;;;18.40;95.80;;;;;;4929259;29;20216;-70
2023/04/22 10:10:15;;;;;;;5.93;4.43;;;18.40;96.10;;;;;;4928987;29;20299;-70
2023/04/22 10:12:44;;;;;;;4.63;3.90;;;18.50;97.10;;;;;;4929227;29;20303;-70
2023/04/22 10:15:11;;;;;;;6.50;4.50;;;18.60;95.00;;;;;;4928644;29;20236;-70
2023/04/22 10:17:39;;;;;;;5.87;4.50;;;18.70;95.20;;;;;;4928660;29;20275;-70
2023/04/22 10:20:12;;;;;;;5.97;4.43;;;18.70;95.20;;;;;;4929029;29;20231;-68
2023/04/22 10:22:41;;;;;;;7.83;4.20;;;18.80;95.20;;;;;;4910531;29;20714;-68
2023/04/22 10:25:12;;;;;;;4.85;4.22;;;18.90;95.00;;;;;;4928513;29;20213;-70
2023/04/22 10:27:40;;;;;;;6.73;5.90;;;19.00;95.80;;;;;;4928809;29;20259;-68
2023/04/22 10:30:11;;;;;;;6.45;4.05;;;19.10;94.80;;;;;;4928416;29;20650;-68
2023/04/22 10:32:37;;;;;;;4.47;4.00;;;19.20;94.40;;;;;;4928748;29;20560;-68
2023/04/22 10:35:12;;;;;;;6.50;4.53;;;19.30;93.10;;;;;;4928889;29;20307;-68
2023/04/22 10:37:42;;;;;;;5.03;4.50;;;19.40;93.10;;;;;;4928647;29;20630;-68
2023/04/22 10:40:14;;;;;;;6.20;4.20;;;19.50;93.40;;;;;;4927734;29;20331;-68
2023/04/22 10:42:42;;;;;;;7.93;5.38;;;19.60;92.70;;;;;;4928508;29;20297;-68
2023/04/22 10:45:14;;;;;;;5.82;4.50;;;19.70;92.80;;;;;;4928720;29;20640;-68
2023/04/22 10:47:42;;;;;;;4.63;4.10;;;19.70;92.80;;;;;;4928456;29;20196;-68
2023/04/22 10:50:14;;;;;;;5.60;4.30;;;19.80;92.80;;;;;;4928465;29;20319;-68
2023/04/22 10:52:43;;;;;;;5.18;4.53;;;19.90;92.20;;;;;;4928382;29;20214;-68
2023/04/22 10:55:10;;;;;;;7.93;4.05;;;20.00;92.20;;;;;;4927935;29;20235;-68
2023/04/22 10:57:42;;;;;;;7.35;4.72;;;20.10;92.40;;;;;;4928471;29;20518;-70
2023/04/22 11:00:42;;;;;;;5.82;4.00;;;20.20;91.40;;;;;;4928008;29;20301;-71
2023/04/22 11:03:14;;;;;;;4.97;4.10;;;20.30;91.30;;;;;;4928211;29;20633;-70
2023/04/22 11:05:42;;;;;;;7.95;3.95;;;20.30;91.40;;;;;;4928580;29;20200;-71
2023/04/22 11:08:15;;;;;;;5.65;4.53;;;20.50;90.90;;;;;;4928652;29;20619;-71
2023/04/22 11:10:43;;;;;;;6.82;4.57;;;20.50;90.70;;;;;;4928323;29;20201;-71
2023/04/22 11:13:13;;;;;;;4.25;3.85;;;20.60;91.00;;;;;;4928455;29;20273;-71
2023/04/22 11:15:42;;;;;;;4.35;4.05;;;20.70;90.70;;;;;;4928153;29;20299;-71
2023/04/22 11:18:13;;;;;;;4.05;3.70;;;20.80;91.20;;;;;;4928053;29;20361;-71
2023/04/22 11:20:40;;;;;;;6.32;3.80;;;20.90;90.50;;;;;;4925214;29;20746;-71
2023/04/22 11:23:07;;;;;;;5.47;4.60;;;21.00;88.30;;;;;;4927822;29;20729;-71
2023/04/22 11:25:34;;;;;;;5.93;3.80;;;21.10;88.70;;;;;;4928004;29;20302;-71
2023/04/22 11:28:01;;;;;;;5.70;4.28;;;21.10;89.80;;;;;;4927789;29;20663;-71
2023/04/22 11:30:30;;;;;;;4.50;4.13;;;21.20;89.70;;;;;;4927902;29;20722;-71
2023/04/22 11:32:59;;;;;;;5.82;4.15;;;21.30;90.50;;;;;;4928128;29;20303;-71
2023/04/22 11:35:30;;;;;;;5.45;4.20;;;21.30;89.60;;;;;;4928132;29;20339;-71
2023/04/22 11:37:59;;;;;;;4.72;4.32;;;21.40;90.80;;;;;;4927857;29;20204;-71
2023/04/22 11:40:29;;;;;;;4.60;3.53;;;21.60;89.60;;;;;;4927942;29;20213;-71
2023/04/22 11:42:56;;;;;;;4.18;3.75;;;21.60;87.50;;;;;;4927841;29;20316;-71
2023/04/22 11:45:24;;;;;;;5.35;3.67;;;21.70;87.60;;;;;;4928283;29;20641;-71
2023/04/22 11:47:51;;;;;;;3.95;3.60;;;21.80;86.80;;;;;;4927913;29;20255;-71
2023/04/22 11:50:22;;;;;;;5.65;3.70;;;21.80;89.60;;;;;;4928354;29;20736;-71
2023/04/22 11:52:52;;;;;;;6.43;4.03;;;21.90;87.60;;;;;;4929943;29;20207;-71
2023/04/22 11:55:22;;;;;;;6.65;4.18;;;22.00;86.20;;;;;;4931753;29;20219;-71
2023/04/22 11:57:55;;;;;;;4.63;3.67;;;22.10;86.90;;;;;;4931857;29;20287;-71
2023/04/22 12:00:23;;;;;;;8.07;3.67;;;22.30;84.60;;;;;;4931931;29;20238;-71
2023/04/22 12:02:59;;;;;;;4.72;3.45;;;22.30;83.50;;;;;;4931176;29;20714;-71
2023/04/22 12:05:35;;;;;;;4.72;3.80;;;22.40;84.20;;;;;;4931841;29;20200;-71
2023/04/22 12:08:03;;;;;;;4.18;3.78;;;22.40;85.80;;;;;;4931433;29;20392;-71
2023/04/22 12:10:30;;;;;;;4.38;4.00;;;22.50;85.00;;;;;;4930990;29;20226;-71
2023/04/22 12:12:57;;;;;;;4.32;4.03;;;22.60;87.30;;;;;;4930584;29;20918;-71
2023/04/22 12:15:24;;;;;;;5.63;3.80;;;22.60;86.10;;;;;;4931062;29;20247;-71
2023/04/22 12:17:51;;;;;;;4.28;3.92;;;22.70;86.60;;;;;;4929742;29;20327;-71
2023/04/22 12:20:18;;;;;;;4.63;3.75;;;22.80;85.60;;;;;;4930817;29;20227;-71
2023/04/22 12:22:48;;;;;;;3.95;3.60;;;22.90;85.80;;;;;;4930789;29;20343;-71
2023/04/22 12:25:18;;;;;;;4.65;3.90;;;23.00;83.20;;;;;;4930576;29;20279;-71
2023/04/22 12:27:45;;;;;;;4.40;3.92;;;23.10;84.30;;;;;;4930746;29;20197;-71
2023/04/22 12:30:13;;;;;;;4.28;3.85;;;23.00;83.40;;;;;;4930722;29;20323;-72
2023/04/22 12:32:40;;;;;;;5.03;4.00;;;23.10;84.00;;;;;;4930766;29;20299;-69
2023/04/22 12:35:08;;;;;;;6.65;3.97;;;23.20;81.20;;;;;;4930694;29;20294;-70
2023/04/22 12:37:35;;;;;;;6.03;3.90;;;23.20;81.90;;;;;;4930745;29;20753;-69
2023/04/22 12:40:05;;;;;;;4.45;4.05;;;23.30;84.30;;;;;;4930500;29;20682;-69
2023/04/22 12:42:32;;;;;;;4.10;3.80;;;23.30;82.30;;;;;;4930829;29;20243;-70
2023/04/22 12:44:59;;;;;;;3.95;3.65;;;23.30;80.60;;;;;;4930274;29;20217;-70
2023/04/22 12:47:26;;;;;;;4.28;3.72;;;23.30;82.00;;;;;;4930379;29;20243;-70
2023/04/22 12:49:53;;;;;;;5.90;4.03;;;23.40;79.70;;;;;;4930296;29;20242;-69